Time;durP1;ratioP1;P1;durP2;ratioP2;P2;SDS_P1;SDS_P2;PMS_P1;PMS_P2;Temp;Humidity;BMP_temperature;BMP_pressure;BME280_temperature;BME280_humidity;BME280_pressure;Samples;Min_cycle;Max_cycle;Signal;HPM_P1;HPM_P2
2021/10/02 00:41:38;;;;;;;18.55;11.30;;;;;;;13.52;89.49;101137.94;5052969;28;20053;-64
2021/10/02 00:46:51;;;;;;;17.58;11.43;;;;;;;13.43;89.33;101126.94;5052973;28;20111;-63
2021/10/02 00:49:18;;;;;;;18.88;11.32;;;;;;;13.43;89.25;101137.31;5034785;28;20072;-64
2021/10/02 00:51:44;;;;;;;23.35;12.27;;;;;;;13.43;89.37;101147.72;5052605;28;20029;-64
2021/10/02 00:54:09;;;;;;;23.58;12.48;;;;;;;13.35;89.83;101139.31;5052365;28;20092;-64
2021/10/02 00:56:35;;;;;;;22.58;12.30;;;;;;;13.37;89.63;101132.94;5052712;28;20136;-64
2021/10/02 00:59:00;;;;;;;18.63;12.23;;;;;;;13.40;89.80;101129.13;5052483;28;20426;-64
2021/10/02 01:01:34;;;;;;;20.80;12.52;;;;;;;13.36;90.14;101125.34;5052587;28;20025;-65
2021/10/02 01:04:12;;;;;;;20.67;12.98;;;;;;;13.42;89.92;101112.38;5052449;28;20394;-64
2021/10/02 01:06:48;;;;;;;19.80;12.30;;;;;;;13.38;89.83;101102.56;5052639;28;20499;-63
2021/10/02 01:09:30;;;;;;;22.85;12.90;;;;;;;13.30;90.05;101117.34;5052474;28;20025;-64
2021/10/02 01:12:23;;;;;;;19.98;12.75;;;;;;;13.39;89.95;101101.59;5052483;28;20040;-63
2021/10/02 01:15:03;;;;;;;22.25;13.00;;;;;;;13.37;89.90;101101.78;5052398;28;20066;-64
2021/10/02 01:17:36;;;;;;;20.80;11.77;;;;;;;13.50;89.05;101111.41;5052418;28;20468;-63
2021/10/02 01:20:06;;;;;;;20.75;12.45;;;;;;;13.51;89.37;101108.59;5052314;28;20022;-64
2021/10/02 01:22:54;;;;;;;18.30;12.52;;;;;;;13.54;89.31;101115.97;5052331;28;20472;-63
2021/10/02 01:25:52;;;;;;;22.15;13.02;;;;;;;13.49;89.56;101127.94;5054163;28;20028;-64
2021/10/02 01:28:20;;;;;;;21.58;13.50;;;;;;;13.53;89.65;101136.97;5056056;28;20021;-64
2021/10/02 01:30:58;;;;;;;23.55;13.82;;;;;;;13.48;89.74;101137.53;5038078;28;20379;-65
2021/10/02 01:33:37;;;;;;;19.95;12.60;;;;;;;13.51;89.61;101147.53;5055937;28;20036;-65
2021/10/02 01:47:16;;;;;;;26.38;13.93;;;;;;;13.42;90.22;101121.97;5055728;28;20502;-65
2021/10/02 01:49:48;;;;;;;20.65;13.40;;;;;;;13.40;90.07;101105.78;5055581;28;20027;-65
2021/10/02 01:52:19;;;;;;;23.27;13.80;;;;;;;13.35;89.94;101101.19;5055603;28;20029;-65
2021/10/02 01:54:45;;;;;;;24.58;13.95;;;;;;;13.35;90.09;101102.97;5055456;28;20080;-65
2021/10/02 01:57:10;;;;;;;21.50;13.63;;;;;;;13.34;90.31;101111.75;5055514;28;20064;-65
2021/10/02 01:59:38;;;;;;;23.55;14.13;;;;;;;13.35;90.18;101100.38;5055321;28;20025;-65
2021/10/02 02:02:05;;;;;;;23.58;13.63;;;;;;;13.28;90.26;101083.00;5055767;28;20099;-65
2021/10/02 02:04:32;;;;;;;23.70;14.13;;;;;;;13.33;90.20;101090.19;5056248;28;20036;-65
2021/10/02 02:06:59;;;;;;;22.88;13.68;;;;;;;13.34;90.33;101078.03;5056234;28;20380;-65
2021/10/02 02:09:26;;;;;;;22.42;13.98;;;;;;;13.25;90.82;101073.00;5055561;28;20460;-65
2021/10/02 02:11:52;;;;;;;19.63;13.50;;;;;;;13.27;90.53;101086.59;5055477;28;20078;-65
2021/10/02 02:14:18;;;;;;;23.38;13.27;;;;;;;13.28;90.33;101092.59;5055744;28;20033;-65
2021/10/02 02:16:46;;;;;;;26.73;14.13;;;;;;;13.24;90.47;101104.34;5055455;28;20060;-65
2021/10/02 02:19:12;;;;;;;25.92;14.98;;;;;;;13.17;90.91;101104.28;5055380;28;20459;-62
2021/10/02 02:21:38;;;;;;;29.98;14.80;;;;;;;13.25;90.83;101105.91;5055342;28;20027;-65
2021/10/02 02:24:03;;;;;;;22.38;14.18;;;;;;;13.27;90.42;101101.38;5055279;28;20025;-66
2021/10/02 02:26:29;;;;;;;25.48;14.93;;;;;;;13.23;90.67;101105.31;5055595;28;20024;-65
2021/10/02 02:28:56;;;;;;;25.40;14.98;;;;;;;13.25;90.46;101092.94;5055350;28;20510;-65
2021/10/02 02:31:21;;;;;;;26.98;14.35;;;;;;;13.26;90.61;101108.38;5055276;28;20528;-65
2021/10/02 02:33:47;;;;;;;26.48;14.20;;;;;;;13.18;90.79;101098.13;5055104;28;20025;-65
2021/10/02 02:36:12;;;;;;;26.52;15.70;;;;;;;13.15;91.01;101103.72;5054376;28;20495;-65
2021/10/02 02:38:37;;;;;;;24.52;15.45;;;;;;;13.16;91.00;101101.91;5055011;28;20021;-65
2021/10/02 02:41:04;;;;;;;32.10;15.13;;;;;;;13.14;91.03;101101.31;5055068;28;20035;-65
2021/10/02 02:43:32;;;;;;;25.23;14.88;;;;;;;13.17;90.83;101095.72;5055034;28;20053;-65
2021/10/02 02:46:16;;;;;;;27.35;15.27;;;;;;;13.12;91.04;101092.91;5054909;28;20021;-65
2021/10/02 02:49:08;;;;;;;23.92;15.30;;;;;;;13.08;91.19;101079.53;5055533;28;20032;-65
2021/10/02 02:51:53;;;;;;;24.92;14.60;;;;;;;13.09;91.00;101078.56;5055087;28;20482;-65
2021/10/02 02:54:36;;;;;;;24.70;14.43;;;;;;;12.99;90.98;101072.94;5036727;28;20045;-64
2021/10/02 02:57:13;;;;;;;26.10;15.48;;;;;;;13.00;91.05;101069.31;5055016;28;20039;-65
2021/10/02 02:59:44;;;;;;;25.00;15.02;;;;;;;12.96;91.12;101061.13;5036678;28;20021;-65
2021/10/02 03:02:19;;;;;;;25.80;15.00;;;;;;;12.91;90.93;101055.72;5054606;28;20025;-65
2021/10/02 03:04:47;;;;;;;23.42;15.23;;;;;;;12.88;90.81;101064.69;5054581;28;20031;-65
2021/10/02 03:07:16;;;;;;;22.25;14.20;;;;;;;12.90;91.23;101058.53;5054466;28;20027;-64
2021/10/02 03:09:45;;;;;;;23.63;14.70;;;;;;;12.94;90.96;101065.72;5054744;28;20372;-64
2021/10/02 03:12:12;;;;;;;24.92;15.30;;;;;;;12.91;90.96;101071.28;5054445;28;20380;-64
2021/10/02 03:14:41;;;;;;;25.98;15.65;;;;;;;12.91;91.29;101058.31;5054721;28;20415;-64
2021/10/02 03:17:07;;;;;;;29.75;16.05;;;;;;;12.95;91.21;101077.72;5054418;28;20471;-64
2021/10/02 03:19:36;;;;;;;33.72;15.77;;;;;;;13.03;90.98;101079.31;5054205;28;20476;-64
2021/10/02 03:22:01;;;;;;;25.27;14.57;;;;;;;13.03;91.13;101090.50;5054194;28;20104;-64
2021/10/02 03:24:28;;;;;;;25.70;15.13;;;;;;;13.05;90.75;101078.13;5054394;28;20132;-64
2021/10/02 03:26:54;;;;;;;26.90;15.43;;;;;;;13.00;91.13;101080.50;5054109;28;20025;-64
2021/10/02 03:29:21;;;;;;;28.40;15.48;;;;;;;13.02;90.93;101077.72;5036168;28;20025;-64
2021/10/02 03:31:47;;;;;;;21.58;14.68;;;;;;;13.02;90.62;101082.91;5054338;28;20035;-64
2021/10/02 03:34:13;;;;;;;28.08;15.73;;;;;;;12.98;91.02;101074.72;5053931;28;20025;-64
2021/10/02 03:36:38;;;;;;;25.83;15.15;;;;;;;13.00;90.85;101087.47;5053980;28;20415;-64
2021/10/02 03:39:03;;;;;;;28.40;15.32;;;;;;;12.91;91.39;101080.88;5054397;28;20075;-63
2021/10/02 03:41:29;;;;;;;34.45;15.70;;;;;;;12.86;91.27;101084.06;5053908;28;20032;-63
2021/10/02 03:43:54;;;;;;;34.35;15.52;;;;;;;12.81;91.52;101082.03;5054071;28;20025;-63
2021/10/02 03:46:19;;;;;;;33.13;16.02;;;;;;;12.77;91.58;101078.22;5036019;28;20025;-64
2021/10/02 03:48:44;;;;;;;26.95;15.32;;;;;;;12.90;91.33;101074.91;5053789;28;20048;-63
2021/10/02 03:51:10;;;;;;;23.27;15.02;;;;;;;12.86;91.03;101078.88;5035851;28;20146;-63
2021/10/02 03:53:35;;;;;;;32.38;15.20;;;;;;;12.82;90.98;101075.84;5053516;28;20049;-63
2021/10/02 03:56:00;;;;;;;23.92;15.25;;;;;;;12.85;91.04;101077.25;5053938;28;20032;-63
2021/10/02 03:58:27;;;;;;;25.55;15.63;;;;;;;12.82;90.91;101082.84;5053612;28;20108;-63
2021/10/02 04:00:52;;;;;;;27.15;15.70;;;;;;;12.77;91.04;101090.41;5053463;28;20028;-63
2021/10/02 04:03:18;;;;;;;27.10;15.75;;;;;;;12.77;91.32;101085.22;5053479;28;20384;-64
2021/10/02 04:05:43;;;;;;;26.65;15.35;;;;;;;12.78;91.13;101099.78;5035919;28;20519;-64
2021/10/02 04:08:08;;;;;;;25.33;14.80;;;;;;;12.82;90.88;101091.41;5053419;28;20021;-64
2021/10/02 04:10:34;;;;;;;25.58;14.98;;;;;;;12.84;90.62;101093.84;5053331;28;20028;-64
2021/10/02 04:12:59;;;;;;;26.08;14.82;;;;;;;12.76;91.13;101094.00;5035472;28;20031;-64
2021/10/02 04:15:25;;;;;;;25.63;15.77;;;;;;;12.67;91.31;101095.16;5035511;28;20124;-64
2021/10/02 04:17:50;;;;;;;34.20;16.50;;;;;;;12.60;91.82;101090.75;5053319;28;20043;-64
2021/10/02 04:20:16;;;;;;;28.42;15.73;;;;;;;12.70;91.50;101092.19;5053449;28;20021;-64
2021/10/02 04:22:41;;;;;;;25.20;15.88;;;;;;;12.67;91.63;101090.78;5053340;28;20479;-64
2021/10/02 04:25:07;;;;;;;27.50;15.77;;;;;;;12.57;91.44;101092.91;5053264;28;20103;-64
2021/10/02 04:27:32;;;;;;;31.88;16.55;;;;;;;12.53;91.74;101078.72;5053182;28;20021;-64
2021/10/02 04:29:58;;;;;;;31.45;15.52;;;;;;;12.56;91.43;101078.34;5053162;28;20143;-64
2021/10/02 04:32:23;;;;;;;32.92;16.63;;;;;;;12.52;91.38;101085.72;5053474;28;20028;-64
2021/10/02 04:34:48;;;;;;;35.45;16.63;;;;;;;12.42;91.88;101091.22;5053021;28;20029;-64
2021/10/02 04:37:13;;;;;;;30.83;15.77;;;;;;;12.48;91.55;101086.28;5053230;28;20107;-64
2021/10/02 04:39:39;;;;;;;28.63;16.23;;;;;;;12.47;91.56;101084.69;5053029;28;20036;-64
2021/10/02 04:42:05;;;;;;;34.13;16.08;;;;;;;12.50;91.36;101082.50;5053045;28;20350;-64
2021/10/02 04:44:31;;;;;;;30.05;18.35;;;;;;;12.44;91.16;101080.69;5053686;28;20056;-64
2021/10/02 04:46:57;;;;;;;36.58;16.02;;;;;;;12.44;91.56;101087.66;5053029;28;20024;-64
2021/10/02 04:49:22;;;;;;;33.30;15.73;;;;;;;12.48;91.09;101083.69;5053019;28;20024;-64
2021/10/02 04:51:48;;;;;;;27.10;15.43;;;;;;;12.47;91.42;101074.31;5053066;28;20468;-64
2021/10/02 04:54:13;;;;;;;30.42;15.30;;;;;;;12.43;91.15;101073.91;5052864;28;20045;-64
2021/10/02 04:56:39;;;;;;;28.67;15.52;;;;;;;12.45;91.03;101078.88;5052883;28;20063;-63
2021/10/02 04:59:05;;;;;;;35.33;16.80;;;;;;;12.32;91.47;101077.84;5035053;28;20033;-63
2021/10/02 05:01:30;;;;;;;41.05;17.00;;;;;;;12.33;91.79;101076.03;5056718;28;20025;-64
2021/10/02 05:03:57;;;;;;;31.95;18.05;;;;;;;12.20;92.35;101071.59;5038919;28;20540;-64
2021/10/02 05:06:22;;;;;;;34.75;17.90;;;;;;;12.18;92.63;101069.19;5056798;28;20033;-64
2021/10/02 05:08:48;;;;;;;41.47;19.92;;;;;;;12.17;92.91;101083.13;5056769;28;20059;-64
2021/10/02 05:11:14;;;;;;;43.58;20.15;;;;;;;12.22;93.04;101092.13;5057319;28;20025;-63
2021/10/02 05:13:39;;;;;;;42.17;19.13;;;;;;;12.30;92.71;101094.56;5056675;28;20032;-63
2021/10/02 05:16:04;;;;;;;37.03;19.17;;;;;;;12.34;92.32;101082.81;5056685;28;20021;-63
2021/10/02 05:18:30;;;;;;;40.75;18.83;;;;;;;12.46;92.00;101068.34;5056622;28;20372;-64
2021/10/02 05:20:56;;;;;;;38.10;19.75;;;;;;;12.30;92.18;101064.25;5056452;28;20025;-65
2021/10/02 05:23:21;;;;;;;34.17;18.27;;;;;;;12.33;92.17;101071.66;5056478;28;20104;-64
2021/10/02 05:25:47;;;;;;;48.05;20.20;;;;;;;12.33;92.53;101066.47;5056427;28;20040;-64
2021/10/02 05:28:12;;;;;;;37.33;19.52;;;;;;;12.33;92.22;101076.03;5056378;28;20021;-65
2021/10/02 05:30:37;;;;;;;38.63;19.15;;;;;;;12.31;92.09;101068.44;5056319;28;20070;-64
2021/10/02 05:33:03;;;;;;;39.70;19.90;;;;;;;12.17;92.65;101084.94;5056245;28;20021;-64
2021/10/02 05:35:29;;;;;;;37.17;19.10;;;;;;;12.15;92.57;101081.72;5056252;28;20079;-64
2021/10/02 05:37:55;;;;;;;44.08;20.67;;;;;;;12.21;92.73;101086.13;5056198;28;20025;-64
2021/10/02 05:40:20;;;;;;;43.45;19.45;;;;;;;12.22;92.34;101089.53;5056073;28;20029;-65
2021/10/02 05:42:45;;;;;;;44.65;20.25;;;;;;;12.10;92.63;101092.63;5055988;28;20375;-64
2021/10/02 05:45:11;;;;;;;36.92;18.52;;;;;;;12.22;92.45;101085.13;5038243;28;20031;-64
2021/10/02 05:47:36;;;;;;;40.22;19.38;;;;;;;12.17;92.32;101092.69;5056066;28;20025;-64
2021/10/02 05:50:02;;;;;;;34.55;19.02;;;;;;;12.19;92.61;101085.50;5038204;28;20024;-64
2021/10/02 05:52:27;;;;;;;38.83;19.58;;;;;;;12.22;91.99;101097.28;5055943;28;20103;-64
2021/10/02 05:54:53;;;;;;;37.97;20.20;;;;;;;12.09;92.92;101079.88;5037978;28;20057;-65
2021/10/02 05:57:18;;;;;;;43.42;21.50;;;;;;;12.13;93.08;101078.50;5055739;28;20387;-65
2021/10/02 05:59:46;;;;;;;37.10;20.98;;;;;;;12.21;92.50;101080.94;5055594;28;20033;-64
2021/10/02 06:02:12;;;;;;;41.50;20.52;;;;;;;12.28;91.79;101076.59;5055619;28;20533;-64
2021/10/02 06:04:37;;;;;;;42.15;21.35;;;;;;;12.25;91.85;101074.38;5055748;28;20112;-65
2021/10/02 06:07:02;;;;;;;38.72;20.23;;;;;;;12.31;91.51;101073.63;5055621;28;20056;-65
2021/10/02 06:09:27;;;;;;;41.65;20.95;;;;;;;12.31;91.58;101085.78;5056176;28;20040;-65
2021/10/02 06:11:53;;;;;;;44.47;21.50;;;;;;;12.32;91.89;101071.84;5054370;28;20024;-65
2021/10/02 06:14:18;;;;;;;33.83;20.13;;;;;;;12.33;91.82;101070.84;5055499;28;20422;-64
2021/10/02 06:16:43;;;;;;;35.63;20.98;;;;;;;12.43;91.18;101073.91;5055811;28;20036;-65
2021/10/02 06:19:09;;;;;;;40.15;20.27;;;;;;;12.32;91.26;101077.03;5055394;28;20032;-65
2021/10/02 06:21:34;;;;;;;44.20;20.17;;;;;;;12.27;91.35;101072.41;5055702;28;20033;-64
2021/10/02 06:24:00;;;;;;;40.83;21.05;;;;;;;12.27;91.54;101063.84;5055306;28;20387;-64
2021/10/02 06:26:27;;;;;;;43.50;21.95;;;;;;;12.37;91.00;101080.66;5055154;28;20375;-64
2021/10/02 06:28:53;;;;;;;37.15;20.73;;;;;;;12.52;90.34;101072.75;5055791;28;20048;-66
2021/10/02 06:31:19;;;;;;;39.05;20.15;;;;;;;12.54;90.03;101086.31;5055215;28;20025;-65
2021/10/02 06:33:44;;;;;;;43.40;21.55;;;;;;;12.58;89.68;101092.72;5055124;28;20468;-65
2021/10/02 06:36:10;;;;;;;40.47;20.35;;;;;;;12.61;89.98;101088.94;5037331;28;20418;-63
2021/10/02 06:38:35;;;;;;;43.08;20.10;;;;;;;12.65;89.45;101088.34;5055487;28;20025;-64
2021/10/02 06:41:01;;;;;;;35.28;20.10;;;;;;;12.60;89.58;101085.56;5055090;28;20021;-65
2021/10/02 06:43:26;;;;;;;40.08;20.48;;;;;;;12.58;89.52;101077.16;5055158;28;20088;-63
2021/10/02 06:45:51;;;;;;;40.45;20.15;;;;;;;12.72;89.25;101085.81;5037365;28;20088;-64
2021/10/02 06:48:17;;;;;;;36.03;20.30;;;;;;;12.78;88.78;101087.63;5055253;28;20039;-64
2021/10/02 06:50:42;;;;;;;38.25;20.80;;;;;;;12.78;88.98;101079.84;5037227;28;20028;-65
2021/10/02 06:53:10;;;;;;;35.28;20.25;;;;;;;12.92;88.22;101085.88;5054567;28;20048;-64
2021/10/02 06:55:36;;;;;;;38.83;20.38;;;;;;;12.92;87.75;101077.28;5054634;28;20067;-65
2021/10/02 06:58:01;;;;;;;41.22;21.63;;;;;;;12.88;88.05;101080.25;5037051;28;20040;-64
2021/10/02 07:00:26;;;;;;;39.58;20.92;;;;;;;13.10;87.20;101061.97;5036702;28;20047;-64
2021/10/02 07:02:52;;;;;;;36.50;20.77;;;;;;;13.32;85.60;101066.03;5054567;28;20024;-65
2021/10/02 07:05:17;;;;;;;35.65;19.52;;;;;;;13.34;85.34;101055.44;5054495;28;20498;-65
2021/10/02 07:07:42;;;;;;;34.08;20.08;;;;;;;13.46;84.83;101058.25;5054493;28;20025;-65
2021/10/02 07:10:10;;;;;;;39.35;19.95;;;;;;;13.76;83.79;101050.88;5054813;28;20115;-66
2021/10/02 07:12:36;;;;;;;32.20;19.23;;;;;;;13.82;82.81;101052.66;5054362;28;20039;-65
2021/10/02 07:15:03;;;;;;;37.17;19.08;;;;;;;13.83;83.51;101051.66;5036591;28;20020;-65
2021/10/02 07:17:28;;;;;;;33.97;18.17;;;;;;;13.96;82.64;101043.84;5054384;28;20090;-65
2021/10/02 07:19:54;;;;;;;31.48;18.83;;;;;;;14.09;82.44;101047.44;5054523;28;20025;-65
2021/10/02 07:22:20;;;;;;;31.48;17.90;;;;;;;14.76;79.83;101048.84;5035990;28;20032;-65
2021/10/02 07:24:45;;;;;;;32.70;17.33;;;;;;;15.53;75.90;101046.91;5054211;28;20035;-65
2021/10/02 07:27:10;;;;;;;28.48;16.10;;;;;;;16.05;74.05;101044.06;5054754;28;20029;-66
2021/10/02 07:29:35;;;;;;;31.52;15.35;;;;;;;16.20;73.73;101046.34;5036312;28;20021;-66
2021/10/02 07:32:01;;;;;;;25.38;15.48;;;;;;;15.92;72.96;101046.81;5054464;28;20025;-65
2021/10/02 07:34:26;;;;;;;25.60;15.07;;;;;;;15.69;73.52;101042.22;5036860;28;20136;-65
2021/10/02 07:36:52;;;;;;;25.02;14.23;;;;;;;15.92;73.00;101039.78;5053907;28;20021;-65
2021/10/02 07:39:17;;;;;;;23.35;13.88;;;;;;;15.68;73.42;101033.63;5036366;28;20025;-65
2021/10/02 07:41:46;;;;;;;21.15;13.10;;;;;;;15.14;74.36;101035.00;5053752;28;20371;-64
2021/10/02 07:44:13;;;;;;;22.67;14.07;;;;;;;15.60;73.81;101038.28;5053808;28;20021;-66
2021/10/02 07:46:47;;;;;;;29.58;18.83;;;;;;;16.05;72.69;101038.06;5054542;28;20028;-65
2021/10/02 07:49:13;;;;;;;22.50;12.38;;;;;;;15.99;71.45;101031.91;5036655;28;20067;-64
2021/10/02 07:51:38;;;;;;;26.58;12.85;;;;;;;16.94;68.18;101026.16;5053731;28;20471;-64
2021/10/02 07:54:05;;;;;;;17.95;11.93;;;;;;;17.80;64.88;101024.00;5053431;28;20064;-64
2021/10/02 07:56:35;;;;;;;24.23;12.00;;;;;;;17.92;64.30;101021.38;5053650;28;20017;-64
2021/10/02 07:59:05;;;;;;;19.55;11.40;;;;;;;17.50;65.33;101024.88;5053665;28;20025;-65
2021/10/02 08:01:31;;;;;;;18.98;10.90;;;;;;;19.38;59.88;101026.13;5054008;28;20091;-64
2021/10/02 08:03:56;;;;;;;16.15;9.98;;;;;;;20.73;56.28;101039.66;5035696;28;20024;-64
2021/10/02 08:06:22;;;;;;;17.27;9.90;;;;;;;19.62;57.53;101029.34;5035659;28;20037;-66
2021/10/02 08:08:48;;;;;;;19.67;10.27;;;;;;;20.26;55.34;101034.13;5053458;28;20051;-65
2021/10/02 08:11:14;;;;;;;22.50;10.57;;;;;;;18.81;60.26;101027.03;5035435;28;20028;-65
2021/10/02 08:13:39;;;;;;;19.52;10.60;;;;;;;20.28;57.87;101019.75;5035495;28;20530;-66
2021/10/02 08:16:07;;;;;;;17.45;10.68;;;;;;;20.99;52.92;101018.88;5053339;28;20111;-66
2021/10/02 08:18:38;;;;;;;16.45;10.15;;;;;;;22.08;50.47;101008.75;5053643;28;20024;-65
2021/10/02 08:21:04;;;;;;;18.27;11.00;;;;;;;19.65;55.98;101018.44;5053826;28;20112;-65
2021/10/02 08:23:33;;;;;;;14.82;9.98;;;;;;;21.57;53.72;101013.78;5053202;28;20060;-65
2021/10/02 08:25:58;;;;;;;17.52;10.32;;;;;;;21.63;52.21;101010.91;5053675;28;20025;-64
2021/10/02 08:28:24;;;;;;;18.88;10.30;;;;;;;20.55;53.67;101016.38;5053181;28;20024;-65
2021/10/02 08:30:52;;;;;;;16.83;10.32;;;;;;;20.69;53.87;100998.38;5053227;28;20349;-64
2021/10/02 08:33:17;;;;;;;17.95;9.90;;;;;;;18.47;60.09;100990.31;5035339;28;20078;-66
2021/10/02 08:35:43;;;;;;;15.07;9.50;;;;;;;18.44;59.86;101000.41;5052658;28;20029;-65
2021/10/02 08:38:10;;;;;;;18.50;10.38;;;;;;;18.86;58.95;101000.94;5053282;28;20017;-65
2021/10/02 08:40:35;;;;;;;18.75;9.52;;;;;;;19.27;57.42;100982.44;5053445;28;20120;-66
2021/10/02 08:43:03;;;;;;;15.85;8.93;;;;;;;17.87;59.99;100998.53;5035346;28;20115;-66
2021/10/02 08:45:30;;;;;;;15.00;8.35;;;;;;;17.80;60.53;100987.41;5035746;28;20017;-66
2021/10/02 08:47:58;;;;;;;14.18;8.05;;;;;;;18.35;58.61;100986.91;5053029;28;20151;-65
2021/10/02 08:50:26;;;;;;;10.85;7.57;;;;;;;19.67;54.71;100989.34;5053028;28;20127;-65
2021/10/02 08:52:54;;;;;;;11.50;6.80;;;;;;;21.13;50.02;100983.25;5053134;28;20028;-63
2021/10/02 08:55:21;;;;;;;13.48;6.18;;;;;;;23.15;45.50;100981.78;5053282;28;20376;-66
2021/10/02 08:57:48;;;;;;;12.25;5.82;;;;;;;24.53;41.36;100965.41;5035207;28;20159;-65
2021/10/02 09:00:17;;;;;;;11.35;5.57;;;;;;;24.51;43.33;100978.09;5052904;28;20549;-66
2021/10/02 09:02:44;;;;;;;13.13;5.30;;;;;;;21.31;48.55;100981.25;5052923;28;20021;-65
2021/10/02 09:05:11;;;;;;;12.43;4.88;;;;;;;22.44;46.40;100980.72;5052923;28;20392;-65
2021/10/02 09:07:36;;;;;;;11.05;4.70;;;;;;;22.98;43.01;100974.94;5052830;28;20025;-65
2021/10/02 09:10:05;;;;;;;16.88;5.07;;;;;;;24.13;41.36;100971.72;5034837;28;20065;-64
2021/10/02 09:12:32;;;;;;;9.23;4.68;;;;;;;23.27;42.63;100953.28;5052879;28;20048;-64
2021/10/02 09:15:02;;;;;;;9.30;3.90;;;;;;;23.64;41.63;100950.28;5052803;28;20021;-65
2021/10/02 09:17:28;;;;;;;8.25;4.18;;;;;;;24.87;39.05;100959.31;5052777;28;20029;-65
2021/10/02 09:19:53;;;;;;;7.97;3.80;;;;;;;24.68;40.03;100952.06;5052894;28;20029;-64
2021/10/02 09:22:21;;;;;;;10.15;4.25;;;;;;;25.42;37.32;100951.91;5034839;28;20052;-64
2021/10/02 09:24:49;;;;;;;11.73;4.20;;;;;;;22.36;44.60;100948.84;5053270;28;20025;-63
2021/10/02 09:27:16;;;;;;;10.77;4.20;;;;;;;25.14;38.63;100956.97;5034788;28;20032;-64
2021/10/02 09:29:50;;;;;;;8.68;4.40;;;;;;;24.04;39.95;100955.66;5052632;28;20025;-64
2021/10/02 09:32:18;;;;;;;7.97;4.32;;;;;;;24.80;38.45;100948.28;5053285;28;20029;-63
2021/10/02 09:34:50;;;;;;;8.95;4.30;;;;;;;21.49;45.31;100940.63;5052588;28;20025;-64
2021/10/02 09:37:23;;;;;;;10.32;4.80;;;;;;;19.76;49.17;100938.06;5053218;28;20353;-64
2021/10/02 09:39:50;;;;;;;10.85;5.32;;;;;;;17.72;55.96;100940.66;5052502;28;20025;-64
2021/10/02 09:42:29;;;;;;;10.07;5.10;;;;;;;18.82;53.43;100939.63;5034684;28;20475;-64
2021/10/02 09:45:05;;;;;;;10.35;5.00;;;;;;;20.88;49.06;100933.13;5052517;28;20025;-64
2021/10/02 09:47:32;;;;;;;9.68;4.80;;;;;;;20.60;48.18;100928.97;5056509;28;20060;-63
2021/10/02 09:49:57;;;;;;;10.02;5.30;;;;;;;18.65;54.29;100934.34;5038007;28;20024;-64
2021/10/02 09:52:31;;;;;;;12.68;5.53;;;;;;;18.03;56.51;100924.59;5056691;28;20029;-63
2021/10/02 09:54:58;;;;;;;10.68;5.53;;;;;;;17.69;57.22;100921.00;5055806;28;20407;-63
2021/10/02 09:57:23;;;;;;;11.73;4.78;;;;;;;18.10;55.24;100924.47;5055959;28;20029;-65
2021/10/02 09:59:50;;;;;;;9.95;4.95;;;;;;;18.30;56.04;100918.81;5055756;28;20025;-64
2021/10/02 10:02:18;;;;;;;11.20;5.50;;;;;;;18.47;56.33;100922.28;5037999;28;20099;-64
2021/10/02 10:04:51;;;;;;;14.13;5.75;;;;;;;18.56;56.99;100906.16;5037990;28;20047;-64
2021/10/02 10:07:17;;;;;;;15.60;6.68;;;;;;;17.43;59.45;100911.84;5056424;28;20025;-63
2021/10/02 10:09:59;;;;;;;15.68;5.60;;;;;;;17.37;60.82;100907.53;5055705;28;20372;-63
2021/10/02 10:12:26;;;;;;;11.50;5.80;;;;;;;16.83;61.78;100907.66;5037910;28;20029;-64
2021/10/02 10:14:51;;;;;;;14.88;5.85;;;;;;;16.23;65.04;100911.09;5055855;28;20040;-64
2021/10/02 10:17:16;;;;;;;18.23;5.63;;;;;;;16.20;65.96;100898.50;5055591;28;20021;-64
2021/10/02 10:19:42;;;;;;;10.68;6.22;;;;;;;15.54;67.85;100907.88;5055781;28;20040;-65
2021/10/02 10:22:17;;;;;;;16.98;6.30;;;;;;;15.47;68.28;100904.53;5055312;28;20032;-63
2021/10/02 10:24:52;;;;;;;17.10;6.68;;;;;;;15.77;66.92;100896.03;5055503;28;20094;-63
2021/10/02 10:27:32;;;;;;;13.73;6.03;;;;;;;16.21;66.31;100887.06;5037453;28;20471;-64
2021/10/02 10:30:08;;;;;;;18.55;6.43;;;;;;;15.63;67.56;100884.94;5037236;28;20486;-63
2021/10/02 10:32:34;;;;;;;12.95;7.00;;;;;;;15.52;68.02;100872.63;5055407;28;20021;-64
2021/10/02 10:35:00;;;;;;;13.52;6.55;;;;;;;15.79;67.57;100873.16;5055006;28;20029;-63
2021/10/02 10:37:26;;;;;;;15.70;5.88;;;;;;;16.06;67.38;100868.41;5055191;28;20098;-63
2021/10/02 10:39:57;;;;;;;10.48;5.80;;;;;;;15.71;68.31;100861.22;5055886;28;20025;-64
2021/10/02 10:42:26;;;;;;;14.90;6.50;;;;;;;15.77;69.05;100860.34;5055477;28;20353;-62
2021/10/02 10:44:54;;;;;;;16.33;6.50;;;;;;;15.65;69.05;100848.22;5054965;28;20082;-62
2021/10/02 10:47:20;;;;;;;14.70;6.40;;;;;;;15.61;69.26;100852.31;5054952;28;20059;-63
2021/10/02 10:49:47;;;;;;;10.95;5.50;;;;;;;15.57;70.08;100836.31;5055074;28;20095;-63
2021/10/02 10:52:15;;;;;;;11.13;5.72;;;;;;;15.32;70.12;100833.78;5054672;28;20407;-64
2021/10/02 10:54:42;;;;;;;14.68;5.80;;;;;;;15.43;70.41;100825.25;5036580;28;20045;-64
2021/10/02 10:57:33;;;;;;;14.75;6.05;;;;;;;15.83;69.78;100822.19;5054026;28;20376;-64
2021/10/02 10:59:58;;;;;;;13.13;5.90;;;;;;;15.78;69.47;100816.84;5054817;28;20061;-64
2021/10/02 11:02:44;;;;;;;19.73;6.57;;;;;;;15.72;69.91;100834.16;5055073;28;20106;-64
2021/10/02 11:05:35;;;;;;;14.38;6.50;;;;;;;15.35;71.11;100820.34;5055436;28;20345;-64
2021/10/02 11:08:05;;;;;;;15.23;5.93;;;;;;;15.64;70.39;100816.19;5037050;28;20559;-65
2021/10/02 11:10:56;;;;;;;13.98;5.63;;;;;;;15.72;69.69;100812.53;5036835;28;20482;-65
2021/10/02 11:13:27;;;;;;;16.70;6.38;;;;;;;15.27;71.33;100811.00;5037324;28;20021;-64
2021/10/02 11:15:53;;;;;;;12.80;6.65;;;;;;;15.27;72.01;100818.00;5054446;28;20107;-63
2021/10/02 11:18:48;;;;;;;13.15;6.10;;;;;;;15.47;71.73;100799.56;5054653;28;20052;-63
2021/10/02 11:21:28;;;;;;;13.20;6.65;;;;;;;15.60;71.12;100793.41;5055114;28;20060;-62
2021/10/02 11:23:53;;;;;;;10.68;6.22;;;;;;;15.28;72.06;100783.97;5054926;28;20451;-62
2021/10/02 11:26:41;;;;;;;12.97;5.83;;;;;;;15.35;72.12;100771.66;5055145;28;20120;-64
2021/10/02 11:29:27;;;;;;;13.48;6.00;;;;;;;15.63;71.70;100762.50;5054836;28;20268;-63
2021/10/02 11:32:21;;;;;;;15.45;5.40;;;;;;;15.66;71.38;100763.88;5036320;28;20021;-63
2021/10/02 11:35:20;;;;;;;13.18;5.68;;;;;;;15.63;72.13;100762.50;5054186;28;20051;-63
2021/10/02 11:37:55;;;;;;;11.70;5.20;;;;;;;15.73;71.83;100762.00;5031771;28;20041;-61
2021/10/02 11:40:32;;;;;;;13.68;5.57;;;;;;;15.74;71.63;100764.41;5053988;28;20044;-62
2021/10/02 11:43:12;;;;;;;14.98;5.65;;;;;;;16.02;70.53;100756.00;5053815;28;20032;-62
2021/10/02 11:45:39;;;;;;;7.72;4.97;;;;;;;15.86;71.17;100758.44;5054002;28;20451;-62
2021/10/02 11:48:12;;;;;;;13.23;5.15;;;;;;;15.79;71.66;100754.13;5053766;28;20029;-63
2021/10/02 11:50:38;;;;;;;11.07;5.20;;;;;;;15.80;71.52;100752.28;5036010;28;20029;-63
2021/10/02 11:53:03;;;;;;;10.52;4.85;;;;;;;15.51;71.31;100746.03;5036658;28;20482;-63
2021/10/02 11:55:40;;;;;;;13.47;5.30;;;;;;;15.49;72.27;100733.22;5057193;28;20419;-64
2021/10/02 11:58:11;;;;;;;16.85;4.90;;;;;;;15.54;72.10;100711.75;5055033;28;20259;-65
2021/10/02 12:00:37;;;;;;;12.43;4.93;;;;;;;15.59;72.38;100717.06;5054642;28;20132;-63
2021/10/02 12:03:04;;;;;;;13.73;4.63;;;;;;;15.37;72.12;100708.16;5054546;28;20052;-62
2021/10/02 12:05:30;;;;;;;12.35;4.57;;;;;;;15.78;71.07;100704.81;5053777;28;20028;-63
2021/10/02 12:07:56;;;;;;;10.15;4.40;;;;;;;16.56;68.16;100685.50;5053337;28;20021;-64
2021/10/02 12:10:22;;;;;;;10.20;4.10;;;;;;;17.99;63.63;100690.78;5052374;28;20028;-64
2021/10/02 12:12:47;;;;;;;8.60;3.53;;;;;;;17.26;65.90;100681.97;5035545;28;20029;-64